Time;durP1;ratioP1;P1;durP2;ratioP2;P2;SDS_P1;SDS_P2;PMS_P1;PMS_P2;Temp;Humidity;BMP_temperature;BMP_pressure;BME280_temperature;BME280_humidity;BME280_pressure;Samples;Min_cycle;Max_cycle;Signal;HPM_P1;HPM_P2
2022/08/27 00:00:13;;;;;;;11.67;9.00;;;25.00;66.80;;;;;;4953384;29;21279;-46
2022/08/27 00:02:40;;;;;;;9.60;8.57;;;25.10;66.70;;;;;;4954229;29;20586;-46
2022/08/27 00:05:05;;;;;;;10.80;9.53;;;25.00;66.70;;;;;;4953274;29;20491;-46
2022/08/27 00:07:31;;;;;;;10.73;9.33;;;25.10;66.90;;;;;;4953550;28;20427;-46
2022/08/27 00:09:57;;;;;;;10.33;9.23;;;25.10;66.80;;;;;;4953147;29;20734;-46
2022/08/27 00:12:23;;;;;;;9.40;8.50;;;25.00;66.70;;;;;;4953952;29;20538;-46
2022/08/27 00:14:48;;;;;;;9.77;7.90;;;25.00;67.00;;;;;;4953525;28;20203;-47
2022/08/27 00:17:14;;;;;;;12.87;10.10;;;25.00;67.10;;;;;;4953852;29;20203;-46
2022/08/27 00:19:40;;;;;;;11.00;10.07;;;24.90;67.00;;;;;;4951170;29;20215;-46
2022/08/27 00:22:07;;;;;;;10.70;9.70;;;24.80;67.40;;;;;;4953885;29;20200;-46
2022/08/27 00:24:34;;;;;;;10.93;9.17;;;24.80;68.00;;;;;;4953086;29;20491;-46
2022/08/27 00:27:00;;;;;;;9.47;8.57;;;24.70;68.20;;;;;;4953961;29;20459;-47
2022/08/27 00:29:25;;;;;;;8.20;7.40;;;24.70;68.20;;;;;;4952791;29;20487;-47
2022/08/27 00:31:52;;;;;;;11.30;8.63;;;24.50;69.10;;;;;;4953872;29;20207;-47
2022/08/27 00:34:19;;;;;;;9.17;8.27;;;24.50;69.20;;;;;;4952918;29;20185;-45
2022/08/27 00:36:44;;;;;;;11.23;9.00;;;24.60;69.10;;;;;;4953582;29;20427;-46
2022/08/27 00:39:11;;;;;;;10.20;8.80;;;24.70;68.70;;;;;;4952750;29;20431;-46
2022/08/27 00:41:38;;;;;;;9.77;8.87;;;24.80;68.60;;;;;;4953543;29;20196;-46
2022/08/27 00:44:05;;;;;;;14.00;8.50;;;24.80;68.10;;;;;;4953061;29;20483;-46
2022/08/27 00:47:05;;;;;;;11.00;8.87;;;24.80;67.90;;;;;;4951730;29;20432;-46
2022/08/27 00:49:40;;;;;;;11.30;8.83;;;24.90;67.90;;;;;;4920762;29;20463;-46
2022/08/27 00:52:26;;;;;;;9.67;8.70;;;24.90;67.90;;;;;;4953309;29;20807;-47
2022/08/27 00:55:02;;;;;;;15.07;9.23;;;25.00;67.70;;;;;;4952617;29;20509;-48
2022/08/27 00:57:29;;;;;;;9.60;8.70;;;25.00;67.70;;;;;;4953205;29;20958;-46
2022/08/27 00:59:55;;;;;;;9.70;8.80;;;25.00;67.50;;;;;;4952117;29;21002;-46
2022/08/27 01:02:24;;;;;;;13.10;9.20;;;25.00;67.40;;;;;;4953213;29;20428;-47
2022/08/27 01:04:57;;;;;;;9.50;8.50;;;25.00;67.70;;;;;;4952500;29;20318;-46
2022/08/27 01:07:25;;;;;;;11.87;9.17;;;25.00;67.90;;;;;;4952798;29;20443;-48
2022/08/27 01:09:51;;;;;;;9.30;8.40;;;25.00;68.00;;;;;;4952194;29;20440;-46
2022/08/27 01:12:17;;;;;;;10.13;9.13;;;25.00;68.10;;;;;;4952824;29;20447;-46
2022/08/27 01:14:44;;;;;;;10.87;9.63;;;25.00;67.90;;;;;;4950779;28;20829;-46
2022/08/27 01:17:12;;;;;;;11.07;9.83;;;25.00;68.00;;;;;;4952350;28;21049;-46
2022/08/27 01:19:46;;;;;;;12.30;11.20;;;25.00;67.90;;;;;;4951686;29;20514;-46
2022/08/27 01:22:37;;;;;;;9.90;8.90;;;25.00;67.80;;;;;;4952923;29;21085;-46
2022/08/27 01:25:11;;;;;;;10.97;9.87;;;25.00;67.60;;;;;;4952231;29;20488;-46
2022/08/27 01:27:39;;;;;;;11.10;9.93;;;25.00;67.70;;;;;;4952214;29;20427;-46
2022/08/27 01:30:06;;;;;;;11.53;10.27;;;25.00;67.60;;;;;;4951951;29;21215;-46
2022/08/27 01:32:34;;;;;;;11.60;10.50;;;25.00;67.60;;;;;;4952655;29;20445;-46
2022/08/27 01:35:04;;;;;;;11.47;10.47;;;25.00;67.70;;;;;;4952078;29;20452;-46
2022/08/27 01:37:30;;;;;;;11.43;9.97;;;25.10;67.70;;;;;;4951999;29;20853;-46
2022/08/27 01:40:00;;;;;;;10.90;9.80;;;25.00;67.80;;;;;;4951948;29;20467;-46
2022/08/27 01:42:40;;;;;;;15.50;13.93;;;25.10;67.90;;;;;;4951175;29;20203;-46
2022/08/27 01:45:23;;;;;;;18.63;16.03;;;25.10;68.10;;;;;;4951599;29;20932;-46
2022/08/27 01:47:49;;;;;;;19.77;17.93;;;25.10;68.10;;;;;;4952529;29;20931;-47
2022/08/27 01:50:19;;;;;;;18.43;16.53;;;25.20;68.20;;;;;;4951787;29;20436;-46
2022/08/27 01:52:45;;;;;;;16.53;14.93;;;25.20;68.20;;;;;;4952294;29;20207;-47
2022/08/27 01:55:13;;;;;;;18.77;16.93;;;25.20;68.20;;;;;;4951865;29;20820;-46
2022/08/27 01:57:40;;;;;;;16.60;14.90;;;25.20;68.30;;;;;;4951929;29;20435;-47
2022/08/27 02:00:13;;;;;;;17.17;15.47;;;25.20;68.40;;;;;;4951707;29;20424;-47
2022/08/27 02:02:40;;;;;;;18.70;16.87;;;25.10;68.40;;;;;;4952611;29;20446;-46
2022/08/27 02:05:06;;;;;;;17.47;15.87;;;25.10;68.40;;;;;;4951657;29;20479;-46
2022/08/27 02:07:32;;;;;;;18.07;16.33;;;25.20;68.40;;;;;;4950267;29;20432;-46
2022/08/27 02:09:57;;;;;;;19.27;17.13;;;25.20;68.30;;;;;;4951769;29;20503;-46
2022/08/27 02:12:23;;;;;;;21.40;17.83;;;25.20;68.30;;;;;;4952025;29;20207;-46
2022/08/27 02:14:49;;;;;;;22.27;20.17;;;25.20;68.40;;;;;;4951389;28;20188;-46
2022/08/27 02:17:14;;;;;;;21.77;19.47;;;25.20;68.70;;;;;;4952406;29;20200;-50
2022/08/27 02:19:40;;;;;;;23.63;21.43;;;25.20;68.80;;;;;;4951249;29;20232;-47
2022/08/27 02:22:05;;;;;;;24.33;21.87;;;25.20;68.80;;;;;;4952117;29;20232;-46
2022/08/27 02:24:31;;;;;;;23.27;20.97;;;25.20;68.60;;;;;;4951455;29;20235;-46
2022/08/27 02:26:57;;;;;;;22.53;20.07;;;25.30;68.50;;;;;;4952526;29;20200;-46
2022/08/27 02:29:24;;;;;;;23.97;21.47;;;25.30;68.60;;;;;;4952685;28;20203;-47
2022/08/27 02:31:49;;;;;;;22.63;20.60;;;25.20;68.70;;;;;;4955927;29;20199;-47
2022/08/27 02:34:15;;;;;;;23.97;21.67;;;25.30;68.70;;;;;;4953502;29;20809;-50
2022/08/27 02:36:42;;;;;;;23.63;21.30;;;25.30;68.60;;;;;;4955877;29;20203;-46
2022/08/27 02:39:08;;;;;;;23.63;20.80;;;25.30;68.60;;;;;;4954833;29;20447;-47
2022/08/27 02:41:35;;;;;;;21.20;19.00;;;25.20;68.80;;;;;;4955827;29;20787;-50
2022/08/27 02:44:01;;;;;;;20.60;17.60;;;25.20;69.00;;;;;;4955425;29;20522;-47
2022/08/27 02:46:28;;;;;;;19.67;17.57;;;25.20;69.10;;;;;;4955091;29;20424;-48
2022/08/27 02:48:54;;;;;;;21.73;18.30;;;25.20;69.00;;;;;;4955076;29;20431;-47
2022/08/27 02:51:19;;;;;;;18.70;17.00;;;25.20;68.80;;;;;;4955166;29;20985;-46
2022/08/27 02:53:45;;;;;;;17.43;15.60;;;25.20;68.80;;;;;;4955260;29;20200;-46
2022/08/27 02:56:11;;;;;;;17.80;15.90;;;25.20;68.70;;;;;;4955034;29;20274;-47
2022/08/27 02:58:36;;;;;;;17.27;15.47;;;25.20;68.80;;;;;;4955053;29;20283;-48
2022/08/27 03:01:03;;;;;;;19.10;15.27;;;25.20;68.80;;;;;;4953105;29;20700;-47
2022/08/27 03:03:29;;;;;;;18.73;16.93;;;25.20;68.60;;;;;;4954902;29;20204;-48
2022/08/27 03:05:57;;;;;;;18.20;16.27;;;25.20;68.40;;;;;;4954701;29;20514;-50
2022/08/27 03:08:27;;;;;;;18.63;16.77;;;25.20;68.70;;;;;;4954422;29;20474;-47
2022/08/27 03:10:54;;;;;;;18.23;16.53;;;25.20;68.70;;;;;;4954596;29;20518;-50
2022/08/27 03:13:20;;;;;;;18.97;17.07;;;25.20;68.60;;;;;;4955089;29;20466;-47
2022/08/27 03:15:45;;;;;;;20.13;17.60;;;25.30;68.80;;;;;;4954138;28;21020;-46
2022/08/27 03:18:17;;;;;;;20.50;17.40;;;25.30;69.00;;;;;;4954786;29;20432;-50
2022/08/27 03:20:51;;;;;;;18.20;16.40;;;25.30;69.10;;;;;;4954451;29;20195;-46
2022/08/27 03:23:20;;;;;;;23.43;18.60;;;25.30;69.10;;;;;;4954931;29;20436;-46
2022/08/27 03:25:52;;;;;;;23.73;21.17;;;25.30;69.10;;;;;;4954249;29;20436;-47
2022/08/27 03:28:21;;;;;;;20.77;18.77;;;25.30;69.10;;;;;;4952780;29;21003;-46
2022/08/27 03:30:50;;;;;;;20.43;18.43;;;25.30;69.10;;;;;;4954163;29;20447;-46
2022/08/27 03:33:17;;;;;;;21.13;19.27;;;25.30;69.10;;;;;;4954698;29;20432;-46
2022/08/27 03:35:42;;;;;;;21.60;19.60;;;25.30;69.10;;;;;;4953966;29;20442;-47
2022/08/27 03:38:08;;;;;;;27.33;24.43;;;25.30;69.10;;;;;;4954126;29;20819;-46
2022/08/27 03:40:33;;;;;;;26.03;23.40;;;25.40;69.00;;;;;;4953457;28;20203;-47
2022/08/27 03:42:59;;;;;;;29.60;26.40;;;25.30;68.80;;;;;;4954772;29;20217;-46
2022/08/27 03:45:26;;;;;;;26.53;23.93;;;25.20;68.70;;;;;;4953870;29;20239;-47
2022/08/27 03:47:52;;;;;;;30.13;27.00;;;25.20;68.70;;;;;;4953940;29;20235;-47
2022/08/27 03:50:18;;;;;;;28.30;25.43;;;25.30;68.70;;;;;;4953864;29;20498;-47
2022/08/27 03:52:43;;;;;;;28.00;25.00;;;25.30;68.70;;;;;;4954504;29;20770;-47
2022/08/27 03:55:09;;;;;;;28.77;25.80;;;25.20;68.80;;;;;;4952107;29;20271;-46
2022/08/27 03:57:35;;;;;;;28.33;25.53;;;25.20;68.70;;;;;;4953851;29;20196;-46
2022/08/27 04:00:01;;;;;;;27.70;25.10;;;25.10;68.60;;;;;;4953578;29;20192;-46
2022/08/27 04:02:27;;;;;;;26.10;23.50;;;25.00;68.50;;;;;;4954367;29;20202;-48
2022/08/27 04:04:52;;;;;;;26.97;24.27;;;25.00;68.00;;;;;;4953607;29;20223;-49
2022/08/27 04:07:18;;;;;;;27.60;24.53;;;24.90;68.50;;;;;;4953819;29;20770;-47
2022/08/27 04:09:44;;;;;;;27.60;24.50;;;24.90;68.50;;;;;;4953522;29;20282;-50
2022/08/27 04:12:10;;;;;;;23.10;20.80;;;24.90;68.20;;;;;;4954096;29;20562;-48
2022/08/27 04:14:36;;;;;;;23.60;21.20;;;24.90;68.10;;;;;;4953045;28;20382;-46
2022/08/27 04:17:02;;;;;;;23.50;21.30;;;24.90;67.90;;;;;;4953711;29;20507;-47
2022/08/27 04:19:31;;;;;;;24.50;21.90;;;24.80;67.70;;;;;;4953079;29;20966;-46
2022/08/27 04:22:05;;;;;;;25.83;23.13;;;24.80;67.70;;;;;;4952005;29;20478;-48
2022/08/27 04:24:32;;;;;;;24.43;22.13;;;24.80;67.90;;;;;;4953103;29;21002;-46
2022/08/27 04:26:59;;;;;;;24.00;21.40;;;24.70;68.20;;;;;;4953465;29;20476;-48
2022/08/27 04:29:25;;;;;;;24.40;22.10;;;24.70;68.10;;;;;;4952661;29;20471;-46
2022/08/27 04:31:51;;;;;;;25.27;22.67;;;24.80;67.80;;;;;;4953760;29;20482;-47
2022/08/27 04:34:17;;;;;;;24.67;22.00;;;24.80;67.90;;;;;;4953039;29;20427;-47
2022/08/27 04:36:44;;;;;;;26.43;23.73;;;24.90;67.70;;;;;;4953510;29;20577;-47
2022/08/27 04:39:11;;;;;;;26.40;23.77;;;24.90;67.70;;;;;;4952369;29;20427;-47
2022/08/27 04:41:36;;;;;;;26.57;23.77;;;24.80;68.00;;;;;;4953416;29;20481;-47
2022/08/27 04:44:08;;;;;;;26.97;24.07;;;24.80;67.80;;;;;;4953268;29;20852;-46
2022/08/27 04:46:38;;;;;;;28.63;25.60;;;24.90;67.70;;;;;;4953383;29;20196;-47
2022/08/27 04:49:09;;;;;;;28.33;25.43;;;24.80;68.10;;;;;;4951331;29;20547;-47
2022/08/27 04:51:36;;;;;;;31.43;26.47;;;24.80;68.20;;;;;;4953098;28;20446;-48
2022/08/27 04:54:03;;;;;;;30.27;27.27;;;24.80;68.10;;;;;;4952497;29;20490;-47
2022/08/27 04:56:30;;;;;;;29.70;26.10;;;24.80;68.30;;;;;;4952774;29;20428;-47
2022/08/27 04:58:56;;;;;;;29.57;26.43;;;24.80;68.70;;;;;;4952824;29;20794;-48
2022/08/27 05:01:27;;;;;;;28.90;26.00;;;24.70;68.60;;;;;;4952557;29;20435;-47
2022/08/27 05:03:53;;;;;;;29.10;26.07;;;24.80;68.50;;;;;;4953246;29;20224;-48
2022/08/27 05:06:20;;;;;;;29.67;26.03;;;24.70;68.70;;;;;;4952705;29;20420;-46
2022/08/27 05:08:47;;;;;;;30.97;27.73;;;24.80;68.90;;;;;;4952827;29;20431;-46
2022/08/27 05:11:15;;;;;;;30.70;25.73;;;24.80;68.90;;;;;;4952461;29;20440;-46
2022/08/27 05:13:41;;;;;;;30.30;27.30;;;24.80;68.90;;;;;;4952797;29;20474;-48
2022/08/27 05:16:17;;;;;;;31.60;28.10;;;24.80;68.80;;;;;;4950707;28;20869;-46
2022/08/27 05:18:43;;;;;;;30.00;26.93;;;24.80;68.90;;;;;;4952563;29;20457;-46
2022/08/27 05:21:14;;;;;;;30.37;27.30;;;24.80;69.10;;;;;;4952345;29;20443;-48
2022/08/27 05:23:40;;;;;;;33.00;27.87;;;24.70;69.00;;;;;;4952817;29;20478;-47
2022/08/27 05:26:07;;;;;;;30.83;27.80;;;24.80;69.10;;;;;;4952335;29;20440;-46
2022/08/27 05:28:33;;;;;;;34.77;28.33;;;24.80;69.00;;;;;;4952441;29;20553;-46
2022/08/27 05:31:05;;;;;;;32.87;29.47;;;24.90;69.00;;;;;;4952265;29;20483;-47
2022/08/27 05:33:30;;;;;;;33.80;30.40;;;24.90;69.00;;;;;;4952736;29;20604;-46
2022/08/27 05:35:57;;;;;;;32.17;28.77;;;24.90;69.00;;;;;;4952140;29;20468;-46
2022/08/27 05:38:25;;;;;;;33.33;29.83;;;25.00;69.00;;;;;;4952555;29;20199;-46
2022/08/27 05:41:00;;;;;;;32.23;28.80;;;25.00;68.80;;;;;;4952229;29;20934;-46
2022/08/27 05:43:25;;;;;;;31.43;28.23;;;24.90;68.80;;;;;;4951027;29;21137;-46
2022/08/27 05:45:51;;;;;;;33.33;29.80;;;24.90;69.30;;;;;;4952137;29;20424;-45
2022/08/27 05:48:17;;;;;;;33.10;29.53;;;24.90;69.30;;;;;;4952493;29;20206;-46
2022/08/27 05:50:44;;;;;;;32.10;28.80;;;24.90;69.30;;;;;;4951974;29;20200;-48
2022/08/27 05:53:11;;;;;;;31.80;28.37;;;25.00;69.20;;;;;;4952662;29;20432;-46
2022/08/27 05:55:44;;;;;;;34.67;29.40;;;25.00;69.20;;;;;;4952014;29;20519;-51
2022/08/27 06:01:03;;;;;;;33.50;30.00;;;25.00;69.00;;;;;;4952132;29;20443;-45
2022/08/27 06:01:05;;;;;;;33.03;29.53;;;25.10;68.90;;;;;;4951893;29;20458;-51
2022/08/27 06:03:32;;;;;;;31.47;28.00;;;25.10;68.80;;;;;;4952213;28;20534;-48
2022/08/27 06:06:07;;;;;;;36.47;28.43;;;25.10;68.60;;;;;;4955862;29;20434;-50
2022/08/27 06:08:34;;;;;;;31.87;28.50;;;25.20;68.60;;;;;;4944377;29;20443;-46
2022/08/27 06:11:00;;;;;;;30.93;27.83;;;25.20;68.60;;;;;;4954565;29;20837;-46
2022/08/27 06:13:27;;;;;;;35.47;28.10;;;25.20;68.60;;;;;;4956184;29;20471;-47
2022/08/27 06:16:06;;;;;;;33.43;30.30;;;25.20;68.80;;;;;;4955522;28;20435;-47
2022/08/27 06:18:33;;;;;;;31.93;28.40;;;25.20;68.60;;;;;;4955793;29;20443;-47
2022/08/27 06:20:59;;;;;;;34.07;30.17;;;25.20;68.80;;;;;;4955613;29;20432;-46
2022/08/27 06:23:25;;;;;;;32.53;29.17;;;25.20;68.60;;;;;;4955838;29;20431;-46
2022/08/27 06:25:52;;;;;;;34.67;29.07;;;25.10;68.80;;;;;;4955854;29;20459;-46
2022/08/27 06:28:22;;;;;;;33.00;28.00;;;25.20;68.80;;;;;;4955578;29;20919;-46
2022/08/27 06:30:48;;;;;;;33.27;27.53;;;25.20;68.60;;;;;;4955627;29;20438;-51
2022/08/27 06:33:14;;;;;;;32.10;28.80;;;25.20;68.60;;;;;;4955752;29;20428;-49
2022/08/27 06:35:39;;;;;;;31.43;28.17;;;25.20;68.60;;;;;;4955352;29;20258;-48
2022/08/27 06:38:06;;;;;;;30.27;27.13;;;25.20;68.70;;;;;;4953975;29;20196;-46
2022/08/27 06:40:31;;;;;;;30.33;27.17;;;25.20;68.90;;;;;;4955330;29;20231;-51
2022/08/27 06:42:57;;;;;;;30.77;27.50;;;25.20;68.70;;;;;;4955801;29;20467;-50
2022/08/27 06:45:22;;;;;;;31.60;28.30;;;25.20;68.70;;;;;;4954792;29;20768;-49
2022/08/27 06:47:48;;;;;;;33.63;30.00;;;25.20;68.60;;;;;;4955374;29;20240;-46
2022/08/27 06:50:14;;;;;;;34.30;30.97;;;25.10;68.60;;;;;;4955067;29;20656;-49
2022/08/27 06:52:39;;;;;;;34.00;30.47;;;25.00;69.10;;;;;;4955604;29;20211;-51
2022/08/27 06:55:06;;;;;;;37.20;29.67;;;25.00;69.10;;;;;;4954928;29;20196;-47
2022/08/27 06:57:32;;;;;;;33.37;29.97;;;25.10;68.80;;;;;;4955229;29;20196;-46
2022/08/27 06:59:58;;;;;;;34.30;30.80;;;25.10;68.50;;;;;;4954993;29;20426;-50
2022/08/27 07:02:23;;;;;;;33.17;29.63;;;25.20;68.50;;;;;;4955071;29;20203;-47
2022/08/27 07:04:52;;;;;;;32.23;29.03;;;25.20;68.50;;;;;;4953260;29;20228;-51
2022/08/27 07:07:17;;;;;;;33.57;29.93;;;25.20;68.70;;;;;;4954955;29;20646;-48
2022/08/27 07:09:44;;;;;;;32.97;29.47;;;25.20;68.70;;;;;;4954935;29;20426;-49
2022/08/27 07:12:09;;;;;;;33.90;30.20;;;25.20;69.60;;;;;;4955288;29;20330;-48
2022/08/27 07:14:35;;;;;;;31.77;28.67;;;25.30;68.80;;;;;;4954256;28;20502;-49
2022/08/27 07:17:01;;;;;;;30.47;27.60;;;25.30;68.50;;;;;;4954082;28;20312;-47
2022/08/27 07:19:29;;;;;;;32.13;28.93;;;25.30;68.30;;;;;;4954580;29;20199;-47
2022/08/27 07:21:55;;;;;;;31.97;28.83;;;25.40;68.30;;;;;;4955078;29;20436;-47
2022/08/27 07:24:20;;;;;;;29.63;26.77;;;25.30;68.00;;;;;;4954474;29;20491;-50
2022/08/27 07:26:46;;;;;;;31.50;28.30;;;25.40;67.90;;;;;;4955042;29;20203;-48
2022/08/27 07:29:14;;;;;;;32.23;28.60;;;25.40;67.80;;;;;;4953953;29;20203;-49
2022/08/27 07:31:40;;;;;;;32.50;28.73;;;25.50;67.70;;;;;;4953261;29;20222;-50
2022/08/27 07:34:06;;;;;;;31.50;28.27;;;25.50;67.50;;;;;;4954276;29;20490;-47
2022/08/27 07:36:33;;;;;;;33.30;28.67;;;25.40;67.60;;;;;;4954768;29;20443;-50
2022/08/27 07:38:59;;;;;;;32.70;29.20;;;25.40;68.10;;;;;;4954396;29;20794;-46
2022/08/27 07:41:25;;;;;;;31.50;28.27;;;25.40;68.10;;;;;;4954089;29;20428;-46
2022/08/27 07:46:35;;;;;;;31.90;28.60;;;25.50;67.90;;;;;;4954970;29;20530;-47
2022/08/27 07:49:00;;;;;;;36.37;28.37;;;25.50;67.80;;;;;;4954269;29;20527;-46
2022/08/27 07:51:28;;;;;;;32.63;29.10;;;25.50;67.70;;;;;;4954026;29;20196;-46
2022/08/27 07:53:54;;;;;;;32.93;29.60;;;25.60;67.90;;;;;;4954360;29;20211;-45
2022/08/27 07:56:21;;;;;;;32.27;28.87;;;25.60;67.60;;;;;;4953887;29;20447;-46
2022/08/27 07:58:46;;;;;;;33.30;29.73;;;25.60;67.40;;;;;;4952268;29;20242;-46
2022/08/27 08:01:12;;;;;;;31.33;28.30;;;25.70;67.40;;;;;;4953769;29;20463;-46
2022/08/27 08:03:39;;;;;;;33.93;27.90;;;25.60;67.70;;;;;;4954201;29;20283;-46
2022/08/27 08:06:09;;;;;;;34.47;30.97;;;25.60;67.60;;;;;;4953851;29;20797;-46
2022/08/27 08:08:36;;;;;;;32.90;29.77;;;25.70;67.30;;;;;;4954032;29;20908;-46
2022/08/27 08:11:02;;;;;;;30.77;27.40;;;25.60;67.50;;;;;;4953461;29;20448;-47
2022/08/27 08:13:30;;;;;;;32.50;28.87;;;25.60;67.50;;;;;;4953988;29;20611;-46
2022/08/27 08:15:56;;;;;;;31.70;28.50;;;25.60;67.40;;;;;;4953378;28;20424;-48
2022/08/27 08:18:22;;;;;;;30.60;27.67;;;25.70;67.30;;;;;;4953787;29;20420;-48
2022/08/27 08:20:47;;;;;;;29.77;26.70;;;25.70;67.10;;;;;;4953385;29;20490;-46
2022/08/27 08:23:13;;;;;;;31.23;27.23;;;25.70;67.30;;;;;;4953857;29;20196;-46
2022/08/27 08:25:40;;;;;;;28.50;25.80;;;25.70;67.40;;;;;;4951657;29;20274;-46
2022/08/27 08:28:06;;;;;;;30.53;27.20;;;25.70;67.60;;;;;;4953249;28;20200;-47
2022/08/27 08:30:32;;;;;;;29.63;26.57;;;25.60;68.00;;;;;;4953203;29;20428;-46
2022/08/27 08:32:57;;;;;;;28.20;25.57;;;25.60;68.90;;;;;;4953412;29;20200;-47
2022/08/27 08:35:23;;;;;;;26.27;23.77;;;25.70;68.60;;;;;;4953145;29;20218;-46
2022/08/27 08:37:49;;;;;;;28.20;25.10;;;25.60;69.30;;;;;;4953443;29;20216;-46
2022/08/27 08:40:33;;;;;;;27.30;24.70;;;25.60;70.00;;;;;;4953136;29;20207;-47
2022/08/27 08:43:00;;;;;;;24.50;22.10;;;25.60;70.30;;;;;;4953495;29;20279;-46
2022/08/27 08:45:30;;;;;;;22.30;20.30;;;25.60;70.70;;;;;;4953081;29;20501;-46
2022/08/27 08:48:06;;;;;;;22.00;19.80;;;25.60;70.90;;;;;;4953084;29;20470;-46
2022/08/27 08:50:53;;;;;;;21.53;19.47;;;25.60;71.00;;;;;;4952233;29;20805;-48
2022/08/27 08:53:47;;;;;;;23.20;21.00;;;25.60;71.10;;;;;;4953469;29;20427;-48
2022/08/27 08:56:22;;;;;;;23.90;21.70;;;25.60;70.90;;;;;;4946232;28;20461;-47
2022/08/27 08:59:14;;;;;;;23.90;21.70;;;25.50;71.50;;;;;;4952939;29;20443;-50
2022/08/27 09:01:41;;;;;;;25.47;23.07;;;25.60;71.30;;;;;;4953165;29;20444;-49
2022/08/27 09:04:10;;;;;;;24.10;21.87;;;25.60;71.30;;;;;;4952950;29;20878;-47
2022/08/27 09:06:41;;;;;;;27.10;24.57;;;25.60;71.20;;;;;;4953064;29;20432;-46
2022/08/27 09:09:42;;;;;;;25.47;22.97;;;25.60;71.10;;;;;;4952356;29;20444;-46
2022/08/27 09:12:17;;;;;;;27.20;24.40;;;25.60;71.20;;;;;;4942440;29;20451;-46
2022/08/27 09:14:50;;;;;;;26.20;23.60;;;25.60;71.80;;;;;;4952381;28;20482;-46
2022/08/27 09:17:16;;;;;;;28.30;25.50;;;25.60;72.20;;;;;;4952679;29;20439;-47
2022/08/27 09:19:42;;;;;;;29.70;26.93;;;25.60;72.40;;;;;;4950533;29;20780;-45
2022/08/27 09:22:23;;;;;;;28.20;25.50;;;25.60;72.40;;;;;;4952878;29;20223;-47
2022/08/27 09:25:02;;;;;;;28.30;25.60;;;25.50;72.80;;;;;;4952251;29;20553;-46
2022/08/27 09:27:30;;;;;;;29.03;26.13;;;25.40;73.00;;;;;;4952078;29;20430;-46
2022/08/27 09:29:56;;;;;;;26.97;24.47;;;25.40;73.30;;;;;;4952289;29;20450;-45
2022/08/27 09:32:32;;;;;;;27.60;25.00;;;25.40;73.50;;;;;;4952841;29;20439;-47
2022/08/27 09:35:01;;;;;;;25.67;23.33;;;25.40;73.80;;;;;;4952248;29;20431;-46
2022/08/27 09:37:31;;;;;;;25.00;22.70;;;25.30;74.00;;;;;;4952292;29;20509;-47
2022/08/27 09:40:08;;;;;;;25.90;23.40;;;25.40;74.20;;;;;;4951718;29;20423;-46
2022/08/27 09:42:51;;;;;;;24.03;21.83;;;25.40;74.20;;;;;;4952816;29;20432;-46
2022/08/27 09:45:26;;;;;;;24.57;22.47;;;25.40;73.80;;;;;;4950320;29;20529;-47
2022/08/27 09:47:54;;;;;;;22.67;20.57;;;25.40;74.10;;;;;;4952206;29;20427;-45
2022/08/27 09:50:23;;;;;;;22.93;20.70;;;25.50;74.30;;;;;;4952389;29;20428;-46
2022/08/27 09:52:55;;;;;;;24.77;22.40;;;25.50;74.20;;;;;;4952699;29;20436;-46
2022/08/27 09:55:28;;;;;;;24.23;22.00;;;25.60;74.20;;;;;;4952247;29;20839;-45
2022/08/27 09:57:54;;;;;;;22.97;20.87;;;25.60;74.00;;;;;;4952011;29;20444;-46
2022/08/27 10:00:35;;;;;;;23.00;21.00;;;25.60;73.80;;;;;;4952318;29;20838;-45
2022/08/27 10:03:02;;;;;;;22.13;19.93;;;25.70;74.10;;;;;;4952478;29;20215;-46
2022/08/27 10:05:37;;;;;;;21.73;19.77;;;25.70;74.40;;;;;;4951852;29;20503;-48
2022/08/27 10:08:28;;;;;;;23.00;20.90;;;25.80;74.50;;;;;;4951837;29;20423;-47
2022/08/27 10:11:01;;;;;;;23.00;20.83;;;25.80;74.30;;;;;;4951741;29;20450;-46
2022/08/27 10:13:46;;;;;;;23.03;20.90;;;25.80;74.40;;;;;;4950660;29;21105;-47
2022/08/27 10:16:28;;;;;;;21.67;19.77;;;25.90;74.30;;;;;;4951746;28;20478;-47
2022/08/27 10:19:03;;;;;;;24.30;22.00;;;25.80;74.50;;;;;;4952072;29;20471;-47
2022/08/27 10:21:43;;;;;;;25.00;22.87;;;25.80;74.50;;;;;;4952149;29;20435;-46
2022/08/27 10:24:27;;;;;;;25.57;23.07;;;25.90;74.70;;;;;;4951617;29;20589;-49
2022/08/27 10:27:03;;;;;;;25.20;22.70;;;25.90;74.70;;;;;;4951881;29;20475;-46
2022/08/27 10:29:28;;;;;;;23.83;21.63;;;25.90;74.80;;;;;;4951750;29;21207;-47
2022/08/27 10:32:13;;;;;;;25.70;23.47;;;25.90;74.30;;;;;;4952171;29;20432;-45
2022/08/27 10:34:54;;;;;;;25.10;22.70;;;25.90;75.10;;;;;;4951589;29;20250;-46
2022/08/27 10:37:33;;;;;;;23.63;21.53;;;25.90;74.30;;;;;;4952069;29;20462;-46
2022/08/27 10:40:20;;;;;;;25.63;23.00;;;25.90;74.30;;;;;;4950172;29;20435;-45
2022/08/27 10:43:07;;;;;;;24.67;22.57;;;25.80;74.10;;;;;;4952204;29;20847;-46
2022/08/27 10:45:43;;;;;;;24.53;22.40;;;25.90;74.50;;;;;;4951193;29;20905;-47
2022/08/27 10:48:23;;;;;;;25.47;22.97;;;25.90;74.50;;;;;;4951620;29;20438;-46
2022/08/27 10:51:09;;;;;;;25.10;22.80;;;25.90;74.50;;;;;;4952188;28;20450;-46
2022/08/27 10:54:00;;;;;;;25.73;23.30;;;25.90;74.10;;;;;;4955251;29;20474;-46
2022/08/27 10:56:53;;;;;;;24.93;22.53;;;25.80;74.20;;;;;;4954878;29;21126;-46
2022/08/27 10:59:22;;;;;;;25.80;23.40;;;25.70;74.90;;;;;;4955111;29;20443;-46
2022/08/27 11:01:59;;;;;;;25.73;23.53;;;25.70;74.80;;;;;;4955400;29;20993;-46
2022/08/27 11:04:48;;;;;;;24.20;22.03;;;25.70;74.90;;;;;;4954758;29;21071;-48
2022/08/27 11:07:29;;;;;;;25.47;22.93;;;25.70;74.80;;;;;;4952676;29;20924;-46
2022/08/27 11:10:04;;;;;;;25.67;23.07;;;25.80;74.40;;;;;;4954637;29;20431;-46
2022/08/27 11:12:35;;;;;;;26.57;24.07;;;25.80;74.70;;;;;;4954984;29;20538;-46
2022/08/27 11:15:11;;;;;;;24.30;22.10;;;25.80;74.90;;;;;;4954663;28;20970;-46
2022/08/27 11:17:40;;;;;;;27.50;24.80;;;25.80;74.80;;;;;;4955066;29;20923;-46
2022/08/27 11:20:19;;;;;;;25.73;23.20;;;25.80;74.70;;;;;;4954576;29;20432;-46
2022/08/27 11:22:49;;;;;;;26.87;24.20;;;25.70;74.30;;;;;;4954945;29;20447;-46
2022/08/27 11:25:21;;;;;;;27.70;24.90;;;25.60;74.80;;;;;;4954716;29;20497;-46
2022/08/27 11:27:52;;;;;;;25.90;23.43;;;25.60;75.00;;;;;;4954578;29;20796;-47
2022/08/27 11:30:40;;;;;;;26.37;23.77;;;25.60;74.90;;;;;;4954463;29;20985;-46
2022/08/27 11:33:35;;;;;;;27.17;24.70;;;25.70;74.70;;;;;;4953568;29;20448;-46
2022/08/27 11:36:33;;;;;;;28.37;25.57;;;25.60;74.90;;;;;;4954432;29;20706;-48
2022/08/27 11:39:11;;;;;;;26.27;23.90;;;25.60;75.10;;;;;;4954579;29;20447;-47
2022/08/27 11:41:58;;;;;;;28.37;25.57;;;25.60;75.40;;;;;;4954780;29;20814;-46
2022/08/27 11:44:25;;;;;;;27.40;24.87;;;25.50;75.80;;;;;;4954087;29;20839;-47
2022/08/27 11:47:05;;;;;;;27.60;24.80;;;25.60;75.80;;;;;;4954477;29;20560;-46
2022/08/27 11:49:42;;;;;;;29.43;26.53;;;25.60;75.60;;;;;;4954236;29;20424;-46
2022/08/27 11:52:09;;;;;;;29.30;26.70;;;25.60;75.70;;;;;;4954670;29;20432;-46
2022/08/27 11:54:45;;;;;;;28.93;25.70;;;25.60;75.40;;;;;;4953990;29;20431;-48
2022/08/27 11:57:35;;;;;;;29.60;26.73;;;25.60;75.50;;;;;;4954224;29;20436;-47
2022/08/27 12:00:27;;;;;;;27.87;25.17;;;25.70;75.50;;;;;;4951752;29;20452;-46
2022/08/27 12:03:08;;;;;;;28.33;25.70;;;25.70;75.40;;;;;;4953749;28;20443;-48
2022/08/27 12:05:43;;;;;;;28.57;25.67;;;25.60;75.40;;;;;;4953648;29;20494;-48
2022/08/27 12:08:14;;;;;;;28.50;25.80;;;25.70;75.40;;;;;;4953809;29;20423;-47
2022/08/27 12:11:04;;;;;;;28.43;25.67;;;25.70;75.50;;;;;;4953691;29;20490;-46
2022/08/27 12:13:48;;;;;;;28.10;25.17;;;25.70;75.20;;;;;;4954090;29;20494;-50
2022/08/27 12:16:31;;;;;;;30.57;27.40;;;25.80;75.60;;;;;;4951415;29;20432;-46
2022/08/27 12:19:03;;;;;;;29.70;26.93;;;25.80;75.20;;;;;;4954053;29;20580;-46
2022/08/27 12:21:53;;;;;;;29.43;26.43;;;25.90;75.00;;;;;;4953426;29;20439;-47
2022/08/27 12:24:41;;;;;;;31.20;28.13;;;25.90;74.80;;;;;;4953204;29;20760;-47
2022/08/27 12:27:27;;;;;;;30.10;27.10;;;25.90;74.70;;;;;;4951934;29;20436;-50
2022/08/27 12:30:03;;;;;;;30.37;27.47;;;26.00;74.80;;;;;;4953244;29;20467;-50
2022/08/27 12:32:34;;;;;;;29.60;26.90;;;26.10;74.80;;;;;;4953475;29;20439;-47
2022/08/27 12:35:27;;;;;;;31.87;28.57;;;26.10;74.60;;;;;;4953347;29;20435;-50
2022/08/27 12:37:54;;;;;;;30.43;27.63;;;26.20;74.00;;;;;;4953350;29;20813;-47
2022/08/27 12:40:36;;;;;;;27.63;24.93;;;26.20;73.80;;;;;;4953350;29;20890;-50
2022/08/27 12:43:21;;;;;;;27.40;24.80;;;26.30;73.60;;;;;;4953717;29;20486;-48
2022/08/27 12:45:48;;;;;;;30.07;27.20;;;26.30;73.30;;;;;;4953135;29;20475;-48
2022/08/27 12:48:23;;;;;;;29.77;26.97;;;26.40;72.90;;;;;;4953200;29;20434;-50